Archival Weather

Norman Y Mineta San Jose Intl

San Jose, California (KSJC)

Report from: Friday, February 2, 2024 12:53 PM PST
Current time: Friday, June 21, 2024 1:08 AM PDT

Current weather – Weather history – Daily summaries
Weather forecast

Present weatherLight rain
Temperature14.4°C (57.9°F)
Dew point6.1°C (43.0°F)
Winds 12 kts (6.2 m/s, 13.8 mph) West-Northwest (300°)
Visibility10 mi. (16.1 km)
Clouds Few clouds 1,600 ft. (488 m)
Scattered clouds with cumulonimbus 3,000 ft. (914 m)
Scattered clouds with cumulonimbus 4,000 ft. (1,219 m)
Altimeter29.94 in.Hg (1014 mB)
PrecipitiationTrace
Precip. events Rain began 8:13 PM
Precip last 3 hoursTrace
Relative humidity57 %
Density altitude51 ft. (16 m)
Sea-level pressure101.4 kPa (1014 mB, 29.93 in.Hg)
Remarks Automated weather observing station with precipitation discriminator
Cumulonimbus clouds observed north and east and west moving east
Pressure rising, then falling
Flight conditions Visual Meteorological Conditions
Raw dataKSJC 022053Z 30012KT 10SM -RA FEW016 SCT030CB SCT040CB 14/06 A2994 RMK AO2 RAB13 SLP137 CB N AND E AND W MOV E P0000 60000 T01440061 50001
An error has occurred. This application may no longer respond until reloaded. Reload 🗙